Boden, Illinois
Current Conditions -  °F | °C
As of 7:52 AM on Thursday 30 Oct 2014 (Local Time) from KMLI Reporting Station
Broken Clouds Broken Clouds  
Wind Chill: 34°   Ceiling: 12000
Heat Index: 34°   Visibility: 10mi
Dew Point: 31°   Wind: 3mph
Humidity: 89%   Direction: 90°E
Pressure: 30.1"   Gusts: NA
Location:  41.2864°N, 90.4945°W
Report Text: KMLI 301252Z 09003KT 10SM BKN120 01/M01 A3010 RMK AO2 SLP199 T00111006
Loading
Personal Weather Stations






























Interactive Weather Map New forecast layout! Learn more

10-Day Weather Forecast

Advertisements
Track Severe Weather on mobile